Time;durP1;ratioP1;P1;durP2;ratioP2;P2;SDS_P1;SDS_P2;PMS_P1;PMS_P2;Temp;Humidity;BMP_temperature;BMP_pressure;BME280_temperature;BME280_humidity;BME280_pressure;Samples;Min_cycle;Max_cycle;Signal;HPM_P1;HPM_P2
2023/04/04 00:01:12;;;;;;;9.20;3.95;;;;;;;7.35;48.91;103155.34;5104414;28;20036;-43
2023/04/04 00:03:38;;;;;;;8.18;3.70;;;;;;;7.49;48.81;103158.81;5100236;28;20449;-45
2023/04/04 00:06:03;;;;;;;9.90;3.90;;;;;;;7.60;48.51;103147.41;5103296;28;20055;-47
2023/04/04 00:08:28;;;;;;;11.52;3.97;;;;;;;7.57;48.89;103148.09;5108800;28;20032;-44
2023/04/04 00:11:00;;;;;;;7.22;3.90;;;;;;;7.55;48.86;103148.81;5106163;28;20034;-47
2023/04/04 00:13:26;;;;;;;9.82;3.45;;;;;;;7.49;49.07;103156.22;5101712;28;20034;-46
2023/04/04 00:15:53;;;;;;;7.13;3.50;;;;;;;7.41;49.31;103154.84;5100430;28;20028;-45
2023/04/04 00:18:18;;;;;;;8.27;3.88;;;;;;;7.30;49.57;103139.50;5110768;28;20036;-45
2023/04/04 00:20:43;;;;;;;6.97;3.40;;;;;;;7.45;49.18;103149.94;5107468;28;20039;-45
2023/04/04 00:23:10;;;;;;;7.57;3.55;;;;;;;7.43;49.02;103146.38;5104854;28;20081;-44
2023/04/04 00:25:38;;;;;;;7.10;3.55;;;;;;;7.39;49.32;103144.34;5099803;28;20459;-44
2023/04/04 00:28:03;;;;;;;9.50;3.72;;;;;;;7.35;49.04;103142.38;5103479;28;20031;-43
2023/04/04 00:30:30;;;;;;;9.13;4.20;;;;;;;7.22;49.88;103140.72;5103525;28;20027;-45
2023/04/04 00:32:56;;;;;;;7.80;3.53;;;;;;;7.28;49.35;103130.72;5098574;28;20440;-45
2023/04/04 00:35:21;;;;;;;7.60;3.83;;;;;;;7.00;50.40;103134.09;5103152;28;20096;-44
2023/04/04 00:37:46;;;;;;;7.13;3.65;;;;;;;7.24;50.53;103133.03;5098873;28;20118;-47
2023/04/04 00:40:12;;;;;;;7.85;3.35;;;;;;;7.09;50.39;103138.16;5106387;28;20032;-45
2023/04/04 00:42:38;;;;;;;9.20;3.78;;;;;;;7.04;50.66;103136.06;5106758;28;20035;-45
2023/04/04 00:45:06;;;;;;;7.30;3.67;;;;;;;7.13;50.37;103144.44;5105825;28;20047;-47
2023/04/04 00:47:32;;;;;;;7.10;3.83;;;;;;;7.26;50.46;103134.91;5101273;28;20504;-43
2023/04/04 00:49:57;;;;;;;6.97;3.85;;;;;;;7.11;50.65;103140.84;5105106;28;20378;-44
2023/04/04 00:52:23;;;;;;;6.22;3.60;;;;;;;7.21;50.12;103141.50;5104424;28;20118;-43
2023/04/04 00:54:48;;;;;;;10.30;3.65;;;;;;;7.16;50.00;103144.63;5098229;28;20039;-45
2023/04/04 00:57:14;;;;;;;10.20;3.95;;;;;;;7.11;50.06;103139.16;5103999;28;20063;-45
2023/04/04 00:59:40;;;;;;;8.00;3.90;;;;;;;6.99;50.75;103142.66;5100010;28;20118;-45
2023/04/04 01:02:05;;;;;;;8.38;3.58;;;;;;;6.95;51.17;103144.16;5103453;28;20044;-44
2023/04/04 01:04:31;;;;;;;7.38;3.80;;;;;;;6.93;51.07;103137.97;5098334;28;20063;-45
2023/04/04 01:06:56;;;;;;;8.40;3.90;;;;;;;6.86;51.63;103147.06;5102961;28;20408;-44
2023/04/04 01:09:22;;;;;;;9.00;4.22;;;;;;;6.82;51.87;103141.59;5107771;28;20034;-43
2023/04/04 01:11:48;;;;;;;9.70;4.03;;;;;;;6.80;51.73;103135.38;5104370;27;20031;-43
2023/04/04 01:14:13;;;;;;;11.77;4.32;;;;;;;6.72;52.53;103131.41;5107884;27;20049;-44
2023/04/04 01:16:40;;;;;;;8.75;3.92;;;;;;;6.68;52.77;103135.50;5104334;27;20439;-44
2023/04/04 01:19:10;;;;;;;8.68;4.07;;;;;;;6.71;52.69;103133.09;5109427;27;20485;-43
2023/04/04 01:21:36;;;;;;;9.60;3.88;;;;;;;6.60;53.25;103128.91;5105054;27;20401;-44
2023/04/04 01:24:03;;;;;;;9.60;4.13;;;;;;;6.52;53.92;103122.34;5106431;28;20493;-45
2023/04/04 01:26:29;;;;;;;7.60;3.90;;;;;;;6.66;53.69;103123.22;5107059;27;20517;-45
2023/04/04 01:28:56;;;;;;;10.43;3.83;;;;;;;6.49;54.11;103125.63;5102482;27;20107;-44
2023/04/04 01:31:47;;;;;;;8.07;3.92;;;;;;;6.64;53.65;103120.56;5106689;27;20082;-43
2023/04/04 01:34:19;;;;;;;9.30;3.97;;;;;;;6.57;53.82;103126.13;5100477;27;20028;-44
2023/04/04 01:37:17;;;;;;;9.07;4.35;;;;;;;6.60;53.49;103128.00;5102305;28;20081;-43
2023/04/04 01:40:04;;;;;;;8.00;3.90;;;;;;;6.58;53.46;103121.84;5102993;28;20472;-45
2023/04/04 01:42:30;;;;;;;7.38;3.63;;;;;;;6.59;53.59;103115.88;5107729;28;20142;-43
2023/04/04 01:44:56;;;;;;;8.70;3.90;;;;;;;6.62;53.38;103116.97;5103021;27;20023;-46
2023/04/04 01:47:22;;;;;;;8.45;4.03;;;;;;;6.63;53.13;103126.53;5106176;27;20513;-43
2023/04/04 01:49:48;;;;;;;9.77;4.03;;;;;;;6.61;53.26;103124.63;5104352;27;20051;-45
2023/04/04 01:52:13;;;;;;;9.70;4.53;;;;;;;6.50;53.85;103127.44;5108704;27;20040;-44
2023/04/04 01:54:38;;;;;;;7.78;3.90;;;;;;;6.45;53.76;103127.91;5104154;28;20494;-45
2023/04/04 01:57:04;;;;;;;7.90;3.70;;;;;;;6.42;53.95;103130.28;5106074;27;20518;-46
2023/04/04 01:59:29;;;;;;;9.00;4.13;;;;;;;6.54;53.62;103128.50;5105808;27;20102;-44
2023/04/04 02:01:55;;;;;;;11.10;4.20;;;;;;;6.46;53.97;103135.78;5101923;27;20260;-45
2023/04/04 02:04:20;;;;;;;7.90;4.22;;;;;;;6.50;53.72;103127.44;5104992;28;20595;-43
2023/04/04 02:06:46;;;;;;;8.43;4.20;;;;;;;6.47;53.60;103137.56;5101146;28;20400;-44
2023/04/04 02:09:11;;;;;;;7.82;3.75;;;;;;;6.39;53.73;103140.47;5104906;28;20575;-45
2023/04/04 02:11:37;;;;;;;8.63;4.15;;;;;;;6.25;54.42;103134.38;5101632;27;20024;-44
2023/04/04 02:14:04;;;;;;;7.38;3.88;;;;;;;6.31;54.54;103136.47;5105752;27;20039;-44
2023/04/04 02:16:29;;;;;;;10.70;4.60;;;;;;;6.21;54.58;103144.44;5106375;27;20050;-44
2023/04/04 02:18:55;;;;;;;9.65;4.38;;;;;;;6.20;54.26;103143.53;5100320;28;20489;-43
2023/04/04 02:21:21;;;;;;;9.10;3.95;;;;;;;6.31;53.67;103139.06;5104877;28;20042;-44
2023/04/04 02:23:46;;;;;;;8.18;4.50;;;;;;;6.27;53.91;103137.06;5100508;28;20035;-46
2023/04/04 02:26:11;;;;;;;7.13;4.15;;;;;;;6.13;54.48;103135.22;5104892;27;20040;-44
2023/04/04 02:28:37;;;;;;;8.10;4.15;;;;;;;6.20;54.61;103135.75;5101912;28;20059;-44
2023/04/04 02:31:02;;;;;;;7.63;4.22;;;;;;;6.17;54.19;103135.53;5104100;28;20032;-49
2023/04/04 02:33:28;;;;;;;8.60;4.30;;;;;;;6.16;54.50;103130.28;5105367;27;20024;-45
2023/04/04 02:36:00;;;;;;;7.90;4.25;;;;;;;6.14;54.44;103134.44;5100783;27;20031;-47
2023/04/04 02:38:26;;;;;;;8.00;4.25;;;;;;;5.88;55.12;103128.41;5104436;28;20031;-44
2023/04/04 02:40:51;;;;;;;8.85;4.60;;;;;;;6.01;54.56;103120.66;5099435;28;20040;-47
2023/04/04 02:43:17;;;;;;;11.05;4.72;;;;;;;6.01;55.18;103120.66;5104547;27;20629;-47
2023/04/04 02:45:42;;;;;;;8.55;4.40;;;;;;;5.85;54.61;103120.41;5099994;27;20039;-43
2023/04/04 02:48:09;;;;;;;10.85;4.40;;;;;;;6.11;53.91;103115.31;5104486;27;20031;-43
2023/04/04 02:50:35;;;;;;;8.88;4.43;;;;;;;5.97;54.05;103104.84;5100703;27;20028;-46
2023/04/04 02:53:00;;;;;;;8.35;4.20;;;;;;;6.08;53.46;103109.03;5104943;28;20040;-44
2023/04/04 02:55:26;;;;;;;9.90;4.93;;;;;;;5.97;54.44;103102.25;5103109;28;20082;-46
2023/04/04 02:57:51;;;;;;;10.52;4.57;;;;;;;5.90;54.16;103102.63;5100899;27;20034;-50
2023/04/04 03:00:17;;;;;;;12.27;5.18;;;;;;;5.73;54.67;103098.88;5104814;27;20062;-43
2023/04/04 03:02:42;;;;;;;9.10;4.70;;;;;;;5.90;54.47;103105.22;5100632;28;20525;-44
2023/04/04 03:05:08;;;;;;;9.93;4.50;;;;;;;5.85;53.99;103097.09;5103947;28;20497;-45
2023/04/04 03:07:33;;;;;;;10.75;4.60;;;;;;;5.97;53.74;103103.16;5101006;28;20703;-47
2023/04/04 03:09:58;;;;;;;10.07;4.90;;;;;;;5.85;54.39;103099.69;5104642;28;20146;-45
2023/04/04 03:12:24;;;;;;;9.27;4.93;;;;;;;5.88;54.29;103099.03;5104405;28;20038;-44
2023/04/04 03:14:49;;;;;;;10.27;5.20;;;;;;;5.83;54.30;103106.44;5100221;28;21308;-44
2023/04/04 03:17:16;;;;;;;10.68;5.22;;;;;;;5.65;54.82;103108.69;5103880;27;20436;-45
2023/04/04 03:19:42;;;;;;;13.40;5.00;;;;;;;5.77;54.40;103110.31;5100078;28;20043;-43
2023/04/04 03:22:07;;;;;;;9.90;4.53;;;;;;;5.70;54.13;103111.56;5104105;27;20032;-45
2023/04/04 03:24:32;;;;;;;10.38;4.95;;;;;;;5.65;54.37;103111.28;5099483;27;20044;-44
2023/04/04 03:27:00;;;;;;;9.68;4.90;;;;;;;5.58;54.25;103110.72;5105109;28;20031;-43
2023/04/04 03:29:25;;;;;;;9.10;4.80;;;;;;;5.52;54.28;103115.50;5103786;27;20024;-43
2023/04/04 03:31:51;;;;;;;10.75;5.28;;;;;;;5.47;55.21;103115.19;5100032;28;20050;-44
2023/04/04 03:34:16;;;;;;;12.60;5.63;;;;;;;5.50;55.62;103111.88;5104080;27;20397;-45
2023/04/04 03:36:41;;;;;;;9.25;5.07;;;;;;;5.47;55.71;103115.19;5100289;28;20032;-46
2023/04/04 03:39:07;;;;;;;9.18;4.95;;;;;;;5.41;55.67;103117.34;5104148;27;20019;-45
2023/04/04 03:41:34;;;;;;;10.80;5.18;;;;;;;5.36;55.20;103122.97;5101397;27;20038;-47
2023/04/04 03:43:59;;;;;;;10.05;4.80;;;;;;;5.29;55.39;103132.00;5104441;28;20031;-44
2023/04/04 03:46:25;;;;;;;11.60;5.13;;;;;;;5.24;56.27;103125.59;5104050;28;20043;-44
2023/04/04 03:48:50;;;;;;;9.82;4.88;;;;;;;5.21;55.75;103125.38;5100261;28;20036;-44
2023/04/04 03:51:22;;;;;;;16.27;5.22;;;;;;;5.15;56.08;103120.66;5106027;28;20115;-47
2023/04/04 03:53:47;;;;;;;9.93;5.50;;;;;;;5.15;56.70;103119.78;5100889;28;20423;-46
2023/04/04 03:56:13;;;;;;;9.77;5.22;;;;;;;5.18;56.77;103118.31;5106803;28;20169;-45
2023/04/04 03:58:38;;;;;;;11.32;5.20;;;;;;;5.12;57.22;103117.84;5106778;28;20047;-43
2023/04/04 04:01:03;;;;;;;9.98;5.13;;;;;;;5.06;57.50;103117.41;5108754;28;20032;-44
2023/04/04 04:03:29;;;;;;;9.80;5.28;;;;;;;5.03;57.65;103112.03;5110246;27;20031;-44
2023/04/04 04:05:54;;;;;;;12.57;5.38;;;;;;;5.01;57.42;103111.03;5106292;27;20444;-44
2023/04/04 04:08:19;;;;;;;10.60;5.15;;;;;;;4.97;58.00;103116.78;5109734;27;20024;-44
2023/04/04 04:10:44;;;;;;;11.52;5.38;;;;;;;4.90;58.38;103120.59;5106792;28;20350;-43
2023/04/04 04:13:10;;;;;;;10.45;5.45;;;;;;;4.85;58.37;103114.22;5111193;27;20131;-45
2023/04/04 04:15:36;;;;;;;12.55;5.60;;;;;;;4.82;57.85;103113.97;5104972;28;20031;-47
2023/04/04 04:18:01;;;;;;;9.95;5.10;;;;;;;4.78;58.39;103116.22;5109556;28;20065;-49
2023/04/04 04:20:26;;;;;;;10.35;5.10;;;;;;;4.77;57.83;103117.91;5110507;28;20692;-45
2023/04/04 04:22:52;;;;;;;11.13;5.32;;;;;;;4.73;58.62;103123.66;5106127;28;20047;-47
2023/04/04 04:25:17;;;;;;;12.90;5.50;;;;;;;4.69;58.38;103119.06;5106293;28;20039;-45
2023/04/04 04:27:44;;;;;;;9.48;5.13;;;;;;;4.66;59.13;103121.41;5100390;28;20044;-46
2023/04/04 04:30:09;;;;;;;11.95;5.72;;;;;;;4.66;58.72;103118.84;5105791;28;20042;-46
2023/04/04 04:32:34;;;;;;;10.40;5.45;;;;;;;4.66;59.46;103118.84;5106203;28;20087;-45
2023/04/04 04:35:00;;;;;;;12.27;5.80;;;;;;;4.59;59.31;103124.34;5110846;28;20149;-45
2023/04/04 04:37:26;;;;;;;9.77;5.50;;;;;;;4.60;58.99;103115.81;5109225;28;20027;-45
2023/04/04 04:39:51;;;;;;;11.68;5.72;;;;;;;4.57;58.77;103125.94;5099946;28;20035;-45
2023/04/04 04:42:17;;;;;;;11.80;5.78;;;;;;;4.55;59.11;103124.00;5103896;28;20054;-45
2023/04/04 04:44:42;;;;;;;12.07;5.90;;;;;;;4.54;58.76;103117.94;5103904;27;20032;-43
2023/04/04 04:47:08;;;;;;;10.45;5.70;;;;;;;4.53;59.38;103123.88;5107161;27;20047;-45
2023/04/04 04:49:33;;;;;;;13.27;5.63;;;;;;;4.53;59.38;103131.63;5102927;27;20115;-45
2023/04/04 04:51:59;;;;;;;11.15;6.30;;;;;;;4.49;59.55;103125.34;5109715;28;20030;-45
2023/04/04 04:54:24;;;;;;;10.20;6.05;;;;;;;4.44;60.10;103131.88;5108014;27;20394;-44
2023/04/04 04:56:49;;;;;;;13.50;6.53;;;;;;;4.47;60.19;103132.09;5103470;28;20040;-45
2023/04/04 04:59:15;;;;;;;9.50;5.63;;;;;;;4.46;59.68;103121.63;5107787;27;20062;-45
2023/04/04 05:01:40;;;;;;;11.32;6.05;;;;;;;4.43;59.62;103117.16;5104149;28;20028;-47
2023/04/04 05:04:05;;;;;;;24.02;13.25;;;;;;;4.42;59.92;103125.69;5108210;27;20118;-48
2023/04/04 05:06:31;;;;;;;15.35;9.20;;;;;;;4.42;59.28;103120.53;5104078;27;20027;-45
2023/04/04 05:08:56;;;;;;;14.77;7.20;;;;;;;4.44;59.41;103124.13;5106238;28;20031;-44
2023/04/04 05:11:22;;;;;;;13.43;6.75;;;;;;;4.44;59.86;103129.28;5107748;27;20040;-45
2023/04/04 05:13:47;;;;;;;11.77;6.50;;;;;;;4.46;59.69;103138.03;5103474;27;20039;-45
2023/04/04 05:16:12;;;;;;;13.73;6.70;;;;;;;4.46;59.49;103140.63;5107322;27;20512;-45
2023/04/04 05:18:38;;;;;;;12.90;6.43;;;;;;;4.48;60.22;103148.47;5101886;27;20024;-45
2023/04/04 05:21:03;;;;;;;15.98;6.50;;;;;;;4.46;59.74;103150.94;5105660;27;20067;-46
2023/04/04 05:23:28;;;;;;;13.02;6.88;;;;;;;4.46;60.26;103144.88;5106165;28;20146;-47
2023/04/04 05:25:54;;;;;;;15.38;6.47;;;;;;;4.46;60.01;103143.19;5101825;27;20128;-43
2023/04/04 05:28:20;;;;;;;13.70;6.22;;;;;;;4.47;60.45;103147.56;5105767;27;20493;-46
2023/04/04 05:30:46;;;;;;;13.02;7.10;;;;;;;4.51;59.98;103147.81;5101758;27;20032;-45
2023/04/04 05:33:11;;;;;;;14.48;6.90;;;;;;;4.55;59.88;103139.50;5106696;27;20050;-46
2023/04/04 05:35:36;;;;;;;11.48;6.43;;;;;;;4.57;59.67;103146.59;5103205;27;20435;-46
2023/04/04 05:38:02;;;;;;;11.18;6.75;;;;;;;4.59;59.87;103154.44;5105807;27;20395;-46
2023/04/04 05:40:27;;;;;;;13.48;6.50;;;;;;;4.63;60.20;103152.22;5106152;27;20392;-48
2023/04/04 05:42:54;;;;;;;11.77;6.53;;;;;;;4.76;59.37;103152.28;5099834;27;20027;-44
2023/04/04 05:45:20;;;;;;;12.73;6.38;;;;;;;4.78;59.29;103153.31;5105710;27;20028;-45
2023/04/04 05:47:45;;;;;;;11.52;6.72;;;;;;;4.82;59.04;103149.25;5102333;27;20439;-43
2023/04/04 05:50:10;;;;;;;12.55;6.90;;;;;;;4.99;59.42;103142.75;5105967;28;20050;-44
2023/04/04 05:52:36;;;;;;;13.88;7.22;;;;;;;4.92;59.35;103146.56;5101241;28;20388;-48
2023/04/04 05:55:01;;;;;;;17.27;7.60;;;;;;;4.89;59.45;103144.66;5105849;28;20047;-47
2023/04/04 05:57:26;;;;;;;13.43;6.60;;;;;;;4.84;59.61;103146.00;5106572;27;20035;-44
2023/04/04 05:59:52;;;;;;;12.95;7.20;;;;;;;4.92;59.60;103141.41;5102434;28;20192;-48
2023/04/04 06:02:18;;;;;;;12.52;7.10;;;;;;;4.75;60.53;103141.88;5105441;28;20107;-44
2023/04/04 06:04:44;;;;;;;14.23;7.13;;;;;;;4.80;60.80;103146.59;5100670;27;20394;-45
2023/04/04 06:07:09;;;;;;;14.25;6.78;;;;;;;5.04;60.69;103141.38;5105936;27;20031;-44
2023/04/04 06:09:35;;;;;;;14.63;7.22;;;;;;;5.09;60.39;103140.00;5102268;28;20066;-45
2023/04/04 06:12:03;;;;;;;13.73;7.05;;;;;;;5.24;59.66;103135.94;5104855;27;20180;-43
2023/04/04 06:14:28;;;;;;;11.10;6.47;;;;;;;5.43;59.82;103140.72;5104754;28;20058;-44
2023/04/04 06:16:54;;;;;;;12.98;7.05;;;;;;;5.57;59.59;103140.88;5101368;27;20397;-44
2023/04/04 06:19:19;;;;;;;12.90;7.15;;;;;;;5.65;59.58;103138.84;5106413;27;20046;-48
2023/04/04 06:21:44;;;;;;;14.15;7.65;;;;;;;5.58;58.51;103131.44;5101586;28;20099;-46
2023/04/04 06:24:10;;;;;;;13.45;7.50;;;;;;;5.67;58.59;103139.84;5104809;27;20064;-44
2023/04/04 06:26:35;;;;;;;13.10;7.40;;;;;;;5.91;58.56;103140.66;5101875;27;20038;-43
2023/04/04 06:29:00;;;;;;;13.40;7.07;;;;;;;6.14;58.13;103137.94;5106381;27;20031;-43
2023/04/04 06:31:26;;;;;;;13.55;7.20;;;;;;;6.23;57.89;103140.22;5106578;27;20085;-46
2023/04/04 06:33:51;;;;;;;15.68;7.60;;;;;;;6.53;57.87;103145.75;5101662;27;20036;-45
2023/04/04 06:36:16;;;;;;;13.63;7.18;;;;;;;6.91;57.21;103148.25;5105166;28;20034;-43
2023/04/04 06:38:42;;;;;;;13.70;7.30;;;;;;;7.89;53.90;103147.47;5101534;27;20074;-47
2023/04/04 06:41:07;;;;;;;12.55;6.68;;;;;;;9.40;49.16;103131.03;5104720;27;20032;-45
2023/04/04 06:43:32;;;;;;;12.77;6.82;;;;;;;10.33;46.08;103126.41;5098688;28;20080;-46
2023/04/04 06:45:58;;;;;;;14.13;6.90;;;;;;;11.35;41.71;103120.91;5104222;27;20040;-43
2023/04/04 06:48:23;;;;;;;11.73;6.43;;;;;;;13.00;38.76;103114.94;5103537;27;20035;-44
2023/04/04 06:50:49;;;;;;;12.85;6.18;;;;;;;12.85;38.44;103116.97;5099990;27;22568;-45
2023/04/04 06:53:14;;;;;;;10.95;6.15;;;;;;;12.83;37.67;103121.25;5102464;28;20031;-45
2023/04/04 06:55:40;;;;;;;9.85;5.20;;;;;;;14.89;35.19;103105.94;5100310;27;20122;-44
2023/04/04 06:58:05;;;;;;;9.65;5.30;;;;;;;15.86;32.79;103115.84;5103516;28;20035;-46
2023/04/04 07:00:30;;;;;;;9.80;5.50;;;;;;;15.79;33.05;103122.69;5100663;27;20497;-42
2023/04/04 07:02:58;;;;;;;9.93;5.75;;;;;;;14.46;34.24;103117.69;5103516;27;20375;-43
2023/04/04 07:05:23;;;;;;;8.40;5.68;;;;;;;14.78;33.41;103118.72;5102739;27;20052;-42
2023/04/04 07:07:54;;;;;;;9.85;5.97;;;;;;;14.35;33.70;103124.28;5099472;27;20098;-45
2023/04/04 07:10:20;;;;;;;9.52;5.50;;;;;;;16.15;31.68;103120.13;5102931;27;20126;-44
2023/04/04 07:12:46;;;;;;;12.20;6.20;;;;;;;14.90;32.63;103124.38;5098593;27;20519;-43
2023/04/04 07:15:11;;;;;;;8.45;5.55;;;;;;;15.65;32.13;103134.53;5102978;28;20020;-45
2023/04/04 07:17:37;;;;;;;10.68;5.97;;;;;;;16.55;29.62;103128.19;5099180;27;20051;-45
2023/04/04 07:20:04;;;;;;;9.88;5.95;;;;;;;14.55;32.75;103131.13;5102721;28;20042;-46
2023/04/04 07:22:30;;;;;;;12.98;5.80;;;;;;;13.74;33.27;103144.84;5101396;28;20322;-59
2023/04/04 07:24:55;;;;;;;11.48;6.13;;;;;;;13.70;34.64;103151.72;5101303;28;20044;-45
2023/04/04 07:27:21;;;;;;;9.90;5.93;;;;;;;14.17;33.40;103144.63;5102391;28;20024;-46
2023/04/04 07:29:46;;;;;;;11.63;6.00;;;;;;;14.05;32.66;103144.22;5099353;28;20028;-44
2023/04/04 07:32:11;;;;;;;9.50;5.72;;;;;;;14.56;32.83;103140.78;5105407;28;20031;-44
2023/04/04 07:34:37;;;;;;;9.68;5.90;;;;;;;14.52;33.07;103140.63;5102780;27;20532;-42
2023/04/04 07:37:02;;;;;;;10.27;5.50;;;;;;;14.75;32.05;103133.50;5105980;28;20050;-45
2023/04/04 07:39:27;;;;;;;11.20;5.65;;;;;;;15.60;31.09;103138.78;5104179;27;20034;-45
2023/04/04 07:41:53;;;;;;;11.32;6.10;;;;;;;14.93;30.75;103137.63;5101296;28;20027;-48
2023/04/04 07:44:18;;;;;;;10.70;5.80;;;;;;;14.95;31.82;103140.25;5104857;28;20070;-46
2023/04/04 07:46:43;;;;;;;11.48;5.82;;;;;;;15.13;32.17;103138.22;5103912;27;20035;-46
2023/04/04 07:49:09;;;;;;;9.15;6.03;;;;;;;14.38;32.69;103134.03;5104007;27;20024;-44
2023/04/04 07:51:34;;;;;;;11.70;6.20;;;;;;;13.32;33.31;103128.41;5098671;28;20389;-45
2023/04/04 07:54:01;;;;;;;11.60;6.38;;;;;;;12.26;35.12;103138.06;5107388;28;20030;-43
2023/04/04 07:56:26;;;;;;;8.48;5.95;;;;;;;11.96;37.11;103139.34;5107699;27;20034;-45
2023/04/04 07:58:52;;;;;;;11.63;6.30;;;;;;;12.06;35.83;103139.84;5101769;28;20039;-48
2023/04/04 08:01:17;;;;;;;11.38;6.10;;;;;;;12.07;36.20;103140.75;5103001;28;20112;-45
2023/04/04 08:03:42;;;;;;;9.02;5.45;;;;;;;11.70;35.92;103131.25;5098548;28;20039;-45
2023/04/04 08:06:08;;;;;;;11.73;6.03;;;;;;;11.65;37.01;103126.63;5102485;28;20043;-45
2023/04/04 08:08:33;;;;;;;12.07;5.63;;;;;;;11.45;36.36;103125.75;5099601;28;20129;-43
2023/04/04 08:10:58;;;;;;;9.15;5.03;;;;;;;11.53;35.96;103123.44;5102702;28;20030;-50
2023/04/04 08:13:23;;;;;;;10.38;5.20;;;;;;;11.53;35.93;103121.72;5102677;28;20034;-45
2023/04/04 08:15:49;;;;;;;11.50;5.68;;;;;;;11.65;36.50;103127.50;5097059;28;22495;-46
2023/04/04 08:18:15;;;;;;;10.85;5.68;;;;;;;11.65;36.51;103132.72;5103040;27;20028;-43
2023/04/04 08:20:40;;;;;;;10.07;5.47;;;;;;;11.52;36.30;103127.81;5100718;28;20635;-44
2023/04/04 08:23:06;;;;;;;10.13;5.20;;;;;;;11.74;36.13;103127.06;5098914;28;20032;-43
2023/04/04 08:25:31;;;;;;;11.90;5.43;;;;;;;11.64;35.95;103125.75;5100106;28;20561;-45
2023/04/04 08:27:56;;;;;;;11.63;5.28;;;;;;;11.69;35.36;103129.44;5104248;28;20031;-45
2023/04/04 08:30:22;;;;;;;11.38;5.30;;;;;;;11.40;35.61;103122.88;5103674;28;20040;-44
2023/04/04 08:32:48;;;;;;;10.40;5.07;;;;;;;11.61;34.58;103122.97;5099028;28;20031;-44
2023/04/04 08:35:13;;;;;;;8.23;4.78;;;;;;;11.47;34.23;103118.84;5101638;28;20119;-48
2023/04/04 08:37:45;;;;;;;10.65;4.90;;;;;;;11.55;34.62;103113.97;5097913;28;20118;-46
2023/04/04 08:40:11;;;;;;;9.30;5.30;;;;;;;11.76;34.94;103120.22;5103563;28;20055;-43
2023/04/04 08:42:39;;;;;;;9.80;5.40;;;;;;;11.88;35.25;103112.00;5098889;28;20106;-47
2023/04/04 08:45:08;;;;;;;7.53;4.53;;;;;;;11.90;32.98;103112.94;5102257;28;20032;-43
2023/04/04 08:47:35;;;;;;;8.45;4.80;;;;;;;11.62;34.33;103113.44;5100569;28;20031;-43
2023/04/04 08:50:04;;;;;;;9.63;5.07;;;;;;;11.52;34.54;103108.63;5104220;28;20046;-44
2023/04/04 08:52:31;;;;;;;8.10;4.47;;;;;;;11.52;33.33;103117.38;5101428;28;20383;-44
2023/04/04 08:54:57;;;;;;;9.82;4.93;;;;;;;11.63;35.65;103118.72;5098577;28;20397;-48
2023/04/04 08:57:22;;;;;;;9.95;5.30;;;;;;;11.68;34.36;103117.22;5102198;28;20468;-46
2023/04/04 08:59:48;;;;;;;11.05;5.22;;;;;;;11.83;35.09;103110.91;5098031;28;20181;-48
2023/04/04 09:02:21;;;;;;;8.18;4.88;;;;;;;12.15;34.34;103116.69;5100816;28;20539;-45
2023/04/04 09:04:48;;;;;;;9.90;4.50;;;;;;;11.98;31.94;103109.84;5096941;28;20032;-48
2023/04/04 09:07:14;;;;;;;9.90;4.60;;;;;;;11.31;33.00;103113.75;5101447;28;20047;-45
2023/04/04 09:09:45;;;;;;;10.93;4.65;;;;;;;11.70;33.07;103112.06;5097587;28;20091;-45
2023/04/04 09:12:12;;;;;;;6.32;3.78;;;;;;;11.68;33.06;103114.59;5100336;28;20031;-45
2023/04/04 09:14:40;;;;;;;6.55;3.90;;;;;;;11.71;32.55;103106.88;5093683;28;20114;-47
2023/04/04 09:17:07;;;;;;;7.32;4.00;;;;;;;12.37;31.63;103099.28;5081351;28;20035;-42
2023/04/04 09:19:32;;;;;;;9.68;3.60;;;;;;;11.59;32.37;103108.94;5078846;28;20062;-48
2023/04/04 09:21:58;;;;;;;9.40;3.90;;;;;;;11.81;33.27;103105.63;5081408;28;20490;-48
2023/04/04 09:24:23;;;;;;;7.53;3.58;;;;;;;12.13;32.66;103112.25;5081790;28;20433;-43
2023/04/04 09:26:51;;;;;;;9.60;3.67;;;;;;;12.28;32.41;103104.13;5078507;28;20549;-43
2023/04/04 09:29:20;;;;;;;5.93;3.10;;;;;;;11.86;32.07;103101.47;5083931;28;20035;-47
2023/04/04 09:31:48;;;;;;;7.93;3.50;;;;;;;11.92;31.22;103103.47;5079946;28;20036;-46
2023/04/04 09:34:16;;;;;;;8.48;3.60;;;;;;;12.16;31.70;103102.78;5083628;28;20032;-42
2023/04/04 09:36:41;;;;;;;6.43;3.47;;;;;;;11.98;32.35;103104.63;5080163;28;20047;-46
2023/04/04 09:39:07;;;;;;;6.80;3.13;;;;;;;12.07;32.30;103101.53;5085793;28;20024;-45
2023/04/04 09:41:33;;;;;;;6.82;3.40;;;;;;;12.03;31.17;103107.41;5082660;28;20040;-47
2023/04/04 09:43:59;;;;;;;6.57;3.40;;;;;;;12.11;31.65;103106.94;5083297;28;20024;-44
2023/04/04 09:46:26;;;;;;;8.23;3.33;;;;;;;12.32;31.35;103104.31;5084100;28;20039;-47
2023/04/04 09:48:53;;;;;;;5.80;3.50;;;;;;;11.86;31.01;103105.81;5081113;28;20039;-45
2023/04/04 09:51:18;;;;;;;9.05;3.40;;;;;;;12.56;31.46;103094.00;5085101;28;20028;-43
2023/04/04 09:53:47;;;;;;;6.97;3.50;;;;;;;12.17;32.47;103098.44;5081188;28;20119;-45
2023/04/04 09:56:13;;;;;;;8.27;3.42;;;;;;;12.35;32.59;103100.94;5085237;28;20028;-43
2023/04/04 09:58:39;;;;;;;6.65;3.45;;;;;;;12.40;30.95;103107.25;5081405;28;20035;-44
2023/04/04 10:01:08;;;;;;;8.18;3.65;;;;;;;12.70;31.17;103092.78;5084484;28;20032;-45
2023/04/04 10:03:36;;;;;;;6.38;3.42;;;;;;;13.08;31.75;103096.91;5080744;28;20040;-48
2023/04/04 10:06:03;;;;;;;8.50;4.00;;;;;;;13.01;30.52;103094.88;5082526;28;20029;-48
2023/04/04 10:08:30;;;;;;;8.45;4.00;;;;;;;12.73;30.77;103086.81;5084828;28;20038;-42
2023/04/04 10:11:00;;;;;;;9.65;4.32;;;;;;;12.80;30.75;103096.69;5082573;28;20032;-44
2023/04/04 10:13:27;;;;;;;7.53;4.18;;;;;;;12.68;30.56;103093.59;5085139;28;20032;-44
2023/04/04 10:15:53;;;;;;;8.15;4.70;;;;;;;12.86;31.74;103104.78;5079903;28;20043;-46
2023/04/04 10:18:33;;;;;;;8.85;4.90;;;;;;;12.63;31.12;103096.00;5085298;28;20248;-48
2023/04/04 10:21:01;;;;;;;9.13;4.80;;;;;;;12.67;30.65;103094.41;5081770;28;20502;-48
2023/04/04 10:23:27;;;;;;;8.18;4.30;;;;;;;13.01;30.74;103097.50;5084393;28;20135;-43
2023/04/04 10:25:57;;;;;;;7.35;4.40;;;;;;;12.84;30.74;103093.34;5080035;28;20123;-44
2023/04/04 10:28:23;;;;;;;8.38;4.85;;;;;;;12.28;32.70;103094.56;5084570;28;20578;-45
2023/04/04 10:30:58;;;;;;;8.18;4.85;;;;;;;12.67;31.14;103087.44;5080240;28;20458;-47
2023/04/04 10:33:38;;;;;;;8.95;4.90;;;;;;;12.64;31.33;103087.31;5084066;28;20390;-47
2023/04/04 10:36:08;;;;;;;11.15;4.60;;;;;;;12.90;32.20;103083.13;5079936;28;20032;-48
2023/04/04 10:38:40;;;;;;;9.88;5.47;;;;;;;12.76;30.62;103082.56;5079637;28;20020;-48
2023/04/04 10:41:07;;;;;;;9.63;4.82;;;;;;;12.71;31.15;103078.00;5082575;28;20032;-45
2023/04/04 10:43:34;;;;;;;11.40;5.28;;;;;;;12.14;32.81;103073.06;5079522;28;20031;-45
2023/04/04 10:46:07;;;;;;;8.68;5.10;;;;;;;12.00;32.16;103076.84;5083491;28;20047;-48
2023/04/04 10:48:33;;;;;;;9.18;5.00;;;;;;;12.22;31.77;103073.38;5080112;28;20062;-50
2023/04/04 10:50:58;;;;;;;7.75;4.50;;;;;;;12.73;32.19;103076.34;5084648;28;20040;-48
2023/04/04 10:53:25;;;;;;;9.40;5.03;;;;;;;12.91;30.76;103061.34;5083080;28;20028;-49
2023/04/04 10:55:51;;;;;;;9.68;4.53;;;;;;;12.62;31.56;103047.13;5079076;28;20039;-42
2023/04/04 10:58:17;;;;;;;8.75;4.95;;;;;;;12.98;30.83;103053.78;5083707;28;20389;-44
2023/04/04 11:00:54;;;;;;;9.65;4.75;;;;;;;12.38;31.45;103056.63;5080064;28;20039;-43
2023/04/04 11:03:19;;;;;;;8.88;4.50;;;;;;;13.11;31.14;103051.63;5083539;28;20032;-47
2023/04/04 11:05:50;;;;;;;9.23;4.55;;;;;;;12.62;30.79;103043.63;5079776;28;20040;-43
2023/04/04 11:08:21;;;;;;;10.05;4.70;;;;;;;12.48;30.58;103043.06;5083541;28;20032;-46
2023/04/04 11:10:48;;;;;;;8.18;4.55;;;;;;;12.45;31.05;103040.31;5079098;28;20039;-45
2023/04/04 11:13:26;;;;;;;9.30;4.53;;;;;;;12.79;29.97;103039.94;5083084;28;20036;-48
2023/04/04 11:16:06;;;;;;;8.32;4.63;;;;;;;13.18;30.33;103033.59;5079365;28;20028;-46
2023/04/04 11:18:31;;;;;;;7.55;4.43;;;;;;;12.95;30.29;103034.44;5080007;28;20036;-48
2023/04/04 11:21:00;;;;;;;10.55;4.20;;;;;;;12.53;31.29;103026.72;5083548;28;20055;-44
2023/04/04 11:23:26;;;;;;;8.43;4.30;;;;;;;12.52;31.62;103035.38;5083106;28;20058;-46